sensor_id;sensor_type;location;lat;lon;timestamp;P1;durP1;ratioP1;P2;durP2;ratioP2
38683;SDS011;24910;53.248;-6.134;2023-04-24T00:01:22;23.20;;;15.90;;
38683;SDS011;24910;53.248;-6.134;2023-04-24T00:03:51;22.30;;;15.57;;
38683;SDS011;24910;53.248;-6.134;2023-04-24T00:06:22;21.83;;;15.88;;
38683;SDS011;24910;53.248;-6.134;2023-04-24T00:08:51;29.10;;;16.07;;
38683;SDS011;24910;53.248;-6.134;2023-04-24T00:11:20;27.35;;;15.60;;
38683;SDS011;24910;53.248;-6.134;2023-04-24T00:13:49;21.63;;;14.63;;
38683;SDS011;24910;53.248;-6.134;2023-04-24T00:16:18;25.75;;;15.13;;
38683;SDS011;24910;53.248;-6.134;2023-04-24T00:18:47;23.67;;;14.43;;
38683;SDS011;24910;53.248;-6.134;2023-04-24T00:21:16;24.60;;;14.88;;
38683;SDS011;24910;53.248;-6.134;2023-04-24T00:23:46;19.13;;;13.75;;
38683;SDS011;24910;53.248;-6.134;2023-04-24T00:26:15;20.90;;;14.07;;
38683;SDS011;24910;53.248;-6.134;2023-04-24T00:28:44;21.20;;;14.10;;
38683;SDS011;24910;53.248;-6.134;2023-04-24T00:31:13;20.52;;;13.82;;
38683;SDS011;24910;53.248;-6.134;2023-04-24T00:33:42;21.90;;;14.18;;
38683;SDS011;24910;53.248;-6.134;2023-04-24T00:36:12;23.77;;;14.20;;
38683;SDS011;24910;53.248;-6.134;2023-04-24T00:38:41;18.55;;;13.50;;
38683;SDS011;24910;53.248;-6.134;2023-04-24T00:41:11;21.27;;;13.25;;
38683;SDS011;24910;53.248;-6.134;2023-04-24T00:43:40;22.02;;;13.05;;
38683;SDS011;24910;53.248;-6.134;2023-04-24T00:46:09;19.58;;;13.43;;
38683;SDS011;24910;53.248;-6.134;2023-04-24T00:48:39;18.98;;;12.73;;
38683;SDS011;24910;53.248;-6.134;2023-04-24T00:51:08;19.33;;;12.40;;
38683;SDS011;24910;53.248;-6.134;2023-04-24T00:53:37;20.45;;;13.23;;
38683;SDS011;24910;53.248;-6.134;2023-04-24T00:56:06;18.35;;;13.07;;
38683;SDS011;24910;53.248;-6.134;2023-04-24T00:58:37;17.83;;;12.05;;
38683;SDS011;24910;53.248;-6.134;2023-04-24T01:01:07;19.13;;;12.73;;
38683;SDS011;24910;53.248;-6.134;2023-04-24T01:03:36;19.15;;;12.75;;
38683;SDS011;24910;53.248;-6.134;2023-04-24T01:06:06;18.77;;;12.93;;
38683;SDS011;24910;53.248;-6.134;2023-04-24T01:08:37;21.25;;;13.10;;
38683;SDS011;24910;53.248;-6.134;2023-04-24T01:11:08;19.20;;;12.20;;
38683;SDS011;24910;53.248;-6.134;2023-04-24T01:13:39;18.15;;;12.45;;
38683;SDS011;24910;53.248;-6.134;2023-04-24T01:16:10;18.75;;;12.65;;
38683;SDS011;24910;53.248;-6.134;2023-04-24T01:18:39;16.83;;;11.65;;
38683;SDS011;24910;53.248;-6.134;2023-04-24T01:21:08;21.67;;;12.65;;
38683;SDS011;24910;53.248;-6.134;2023-04-24T01:23:40;17.83;;;11.93;;
38683;SDS011;24910;53.248;-6.134;2023-04-24T01:26:10;18.63;;;12.30;;
38683;SDS011;24910;53.248;-6.134;2023-04-24T01:28:39;21.45;;;14.60;;
38683;SDS011;24910;53.248;-6.134;2023-04-24T01:31:08;21.67;;;14.07;;
38683;SDS011;24910;53.248;-6.134;2023-04-24T01:33:37;22.15;;;14.88;;
38683;SDS011;24910;53.248;-6.134;2023-04-24T01:36:07;21.05;;;13.23;;
38683;SDS011;24910;53.248;-6.134;2023-04-24T01:38:38;22.02;;;14.35;;
38683;SDS011;24910;53.248;-6.134;2023-04-24T01:41:09;23.45;;;14.70;;
38683;SDS011;24910;53.248;-6.134;2023-04-24T01:43:38;23.05;;;14.20;;
38683;SDS011;24910;53.248;-6.134;2023-04-24T01:46:08;24.73;;;15.38;;
38683;SDS011;24910;53.248;-6.134;2023-04-24T01:48:37;26.60;;;16.02;;
38683;SDS011;24910;53.248;-6.134;2023-04-24T01:51:06;23.60;;;14.40;;
38683;SDS011;24910;53.248;-6.134;2023-04-24T01:53:36;24.80;;;15.50;;
38683;SDS011;24910;53.248;-6.134;2023-04-24T01:56:07;24.00;;;15.70;;
38683;SDS011;24910;53.248;-6.134;2023-04-24T01:58:37;24.35;;;16.00;;
38683;SDS011;24910;53.248;-6.134;2023-04-24T02:01:06;29.10;;;16.77;;
38683;SDS011;24910;53.248;-6.134;2023-04-24T02:03:35;28.00;;;17.27;;
38683;SDS011;24910;53.248;-6.134;2023-04-24T02:06:04;28.20;;;17.27;;
38683;SDS011;24910;53.248;-6.134;2023-04-24T02:08:34;28.08;;;17.88;;
38683;SDS011;24910;53.248;-6.134;2023-04-24T02:11:03;28.55;;;17.83;;
38683;SDS011;24910;53.248;-6.134;2023-04-24T02:13:34;23.30;;;11.60;;
38683;SDS011;24910;53.248;-6.134;2023-04-24T02:16:03;16.40;;;7.00;;
38683;SDS011;24910;53.248;-6.134;2023-04-24T02:18:32;12.82;;;6.05;;
38683;SDS011;24910;53.248;-6.134;2023-04-24T02:21:02;8.85;;;4.20;;
38683;SDS011;24910;53.248;-6.134;2023-04-24T02:23:31;12.38;;;3.78;;
38683;SDS011;24910;53.248;-6.134;2023-04-24T02:26:00;10.90;;;4.28;;
38683;SDS011;24910;53.248;-6.134;2023-04-24T02:28:29;14.13;;;3.50;;
38683;SDS011;24910;53.248;-6.134;2023-04-24T02:31:00;8.48;;;3.35;;
38683;SDS011;24910;53.248;-6.134;2023-04-24T02:33:29;10.50;;;3.25;;
38683;SDS011;24910;53.248;-6.134;2023-04-24T02:35:58;8.18;;;3.20;;
38683;SDS011;24910;53.248;-6.134;2023-04-24T02:38:27;7.75;;;3.78;;
38683;SDS011;24910;53.248;-6.134;2023-04-24T02:40:57;8.35;;;3.00;;
38683;SDS011;24910;53.248;-6.134;2023-04-24T02:43:27;6.72;;;3.58;;
38683;SDS011;24910;53.248;-6.134;2023-04-24T02:45:56;8.20;;;3.20;;
38683;SDS011;24910;53.248;-6.134;2023-04-24T02:48:27;6.72;;;3.15;;
38683;SDS011;24910;53.248;-6.134;2023-04-24T02:50:56;5.93;;;2.67;;
38683;SDS011;24910;53.248;-6.134;2023-04-24T02:53:25;9.52;;;3.22;;
38683;SDS011;24910;53.248;-6.134;2023-04-24T02:55:56;12.40;;;3.63;;
38683;SDS011;24910;53.248;-6.134;2023-04-24T02:58:26;6.70;;;3.25;;
38683;SDS011;24910;53.248;-6.134;2023-04-24T03:00:55;5.05;;;3.03;;
38683;SDS011;24910;53.248;-6.134;2023-04-24T03:03:24;9.40;;;3.20;;
38683;SDS011;24910;53.248;-6.134;2023-04-24T03:05:54;9.60;;;3.72;;
38683;SDS011;24910;53.248;-6.134;2023-04-24T03:08:24;6.03;;;3.50;;
38683;SDS011;24910;53.248;-6.134;2023-04-24T03:10:53;7.30;;;3.63;;
38683;SDS011;24910;53.248;-6.134;2023-04-24T03:13:22;9.48;;;3.72;;
38683;SDS011;24910;53.248;-6.134;2023-04-24T03:15:51;5.85;;;2.92;;
38683;SDS011;24910;53.248;-6.134;2023-04-24T03:18:21;5.63;;;2.90;;
38683;SDS011;24910;53.248;-6.134;2023-04-24T03:20:52;8.57;;;3.70;;
38683;SDS011;24910;53.248;-6.134;2023-04-24T03:23:22;7.43;;;3.25;;
38683;SDS011;24910;53.248;-6.134;2023-04-24T03:25:51;8.27;;;3.92;;
38683;SDS011;24910;53.248;-6.134;2023-04-24T03:28:21;7.03;;;3.17;;
38683;SDS011;24910;53.248;-6.134;2023-04-24T03:30:57;13.05;;;6.55;;
38683;SDS011;24910;53.248;-6.134;2023-04-24T03:33:31;13.13;;;6.18;;
38683;SDS011;24910;53.248;-6.134;2023-04-24T03:36:01;8.27;;;3.75;;
38683;SDS011;24910;53.248;-6.134;2023-04-24T03:38:39;10.05;;;3.45;;
38683;SDS011;24910;53.248;-6.134;2023-04-24T03:41:29;7.63;;;3.28;;
38683;SDS011;24910;53.248;-6.134;2023-04-24T03:44:21;6.93;;;3.30;;
38683;SDS011;24910;53.248;-6.134;2023-04-24T03:46:50;6.95;;;2.83;;
38683;SDS011;24910;53.248;-6.134;2023-04-24T03:49:21;6.65;;;3.42;;
38683;SDS011;24910;53.248;-6.134;2023-04-24T03:51:50;6.20;;;3.30;;
38683;SDS011;24910;53.248;-6.134;2023-04-24T03:54:27;7.30;;;3.55;;
38683;SDS011;24910;53.248;-6.134;2023-04-24T03:56:56;8.35;;;3.78;;
38683;SDS011;24910;53.248;-6.134;2023-04-24T03:59:27;8.07;;;3.42;;
38683;SDS011;24910;53.248;-6.134;2023-04-24T04:02:13;16.40;;;4.07;;
38683;SDS011;24910;53.248;-6.134;2023-04-24T04:04:43;10.45;;;3.45;;
38683;SDS011;24910;53.248;-6.134;2023-04-24T04:07:12;8.45;;;3.28;;
38683;SDS011;24910;53.248;-6.134;2023-04-24T04:09:43;9.80;;;3.80;;
38683;SDS011;24910;53.248;-6.134;2023-04-24T04:12:12;11.27;;;3.90;;
38683;SDS011;24910;53.248;-6.134;2023-04-24T04:14:41;6.88;;;4.13;;
38683;SDS011;24910;53.248;-6.134;2023-04-24T04:17:10;14.55;;;4.30;;
38683;SDS011;24910;53.248;-6.134;2023-04-24T04:19:39;10.68;;;4.10;;
38683;SDS011;24910;53.248;-6.134;2023-04-24T04:22:09;13.18;;;4.22;;
38683;SDS011;24910;53.248;-6.134;2023-04-24T04:24:44;10.60;;;3.50;;
38683;SDS011;24910;53.248;-6.134;2023-04-24T04:27:13;12.02;;;3.92;;
38683;SDS011;24910;53.248;-6.134;2023-04-24T04:29:58;10.82;;;3.67;;
38683;SDS011;24910;53.248;-6.134;2023-04-24T04:32:29;8.90;;;3.45;;
38683;SDS011;24910;53.248;-6.134;2023-04-24T04:35:00;11.00;;;3.83;;
38683;SDS011;24910;53.248;-6.134;2023-04-24T04:37:32;12.40;;;4.03;;
38683;SDS011;24910;53.248;-6.134;2023-04-24T04:42:50;16.05;;;4.60;;
38683;SDS011;24910;53.248;-6.134;2023-04-24T04:45:20;17.80;;;4.93;;
38683;SDS011;24910;53.248;-6.134;2023-04-24T04:48:23;16.02;;;4.20;;
38683;SDS011;24910;53.248;-6.134;2023-04-24T04:50:53;15.18;;;5.15;;
38683;SDS011;24910;53.248;-6.134;2023-04-24T04:53:22;14.90;;;4.90;;
38683;SDS011;24910;53.248;-6.134;2023-04-24T04:55:53;18.38;;;4.65;;
38683;SDS011;24910;53.248;-6.134;2023-04-24T04:58:27;11.63;;;4.47;;
38683;SDS011;24910;53.248;-6.134;2023-04-24T05:00:58;14.38;;;4.80;;
38683;SDS011;24910;53.248;-6.134;2023-04-24T05:03:32;9.77;;;4.00;;
38683;SDS011;24910;53.248;-6.134;2023-04-24T05:06:06;12.93;;;4.13;;
38683;SDS011;24910;53.248;-6.134;2023-04-24T05:08:37;14.30;;;4.22;;
38683;SDS011;24910;53.248;-6.134;2023-04-24T05:11:12;13.93;;;4.10;;
38683;SDS011;24910;53.248;-6.134;2023-04-24T05:13:42;12.52;;;4.43;;
38683;SDS011;24910;53.248;-6.134;2023-04-24T05:16:22;12.48;;;5.07;;
38683;SDS011;24910;53.248;-6.134;2023-04-24T05:18:53;12.43;;;4.60;;
38683;SDS011;24910;53.248;-6.134;2023-04-24T05:21:28;16.13;;;3.47;;
38683;SDS011;24910;53.248;-6.134;2023-04-24T05:23:57;15.85;;;3.55;;
38683;SDS011;24910;53.248;-6.134;2023-04-24T05:26:57;24.95;;;3.75;;
38683;SDS011;24910;53.248;-6.134;2023-04-24T05:29:35;20.10;;;3.78;;
38683;SDS011;24910;53.248;-6.134;2023-04-24T05:32:05;18.58;;;3.42;;
38683;SDS011;24910;53.248;-6.134;2023-04-24T05:34:34;15.57;;;3.33;;
38683;SDS011;24910;53.248;-6.134;2023-04-24T05:37:03;16.42;;;3.05;;
38683;SDS011;24910;53.248;-6.134;2023-04-24T05:39:35;18.10;;;3.33;;
38683;SDS011;24910;53.248;-6.134;2023-04-24T05:42:06;14.32;;;3.15;;
38683;SDS011;24910;53.248;-6.134;2023-04-24T05:44:35;10.55;;;3.30;;
38683;SDS011;24910;53.248;-6.134;2023-04-24T05:47:04;13.73;;;2.95;;
38683;SDS011;24910;53.248;-6.134;2023-04-24T05:49:33;13.40;;;3.47;;
38683;SDS011;24910;53.248;-6.134;2023-04-24T05:52:02;13.68;;;3.78;;
38683;SDS011;24910;53.248;-6.134;2023-04-24T05:54:33;15.27;;;2.80;;
38683;SDS011;24910;53.248;-6.134;2023-04-24T05:57:03;15.23;;;3.05;;
38683;SDS011;24910;53.248;-6.134;2023-04-24T05:59:49;17.85;;;3.58;;
38683;SDS011;24910;53.248;-6.134;2023-04-24T06:02:20;15.05;;;2.50;;
38683;SDS011;24910;53.248;-6.134;2023-04-24T06:04:50;16.30;;;3.22;;
38683;SDS011;24910;53.248;-6.134;2023-04-24T06:07:20;20.25;;;3.90;;
38683;SDS011;24910;53.248;-6.134;2023-04-24T06:09:49;40.58;;;4.03;;
38683;SDS011;24910;53.248;-6.134;2023-04-24T06:12:18;15.98;;;3.05;;
38683;SDS011;24910;53.248;-6.134;2023-04-24T06:14:57;12.85;;;3.20;;
38683;SDS011;24910;53.248;-6.134;2023-04-24T06:17:49;13.77;;;3.10;;
38683;SDS011;24910;53.248;-6.134;2023-04-24T06:20:19;16.25;;;3.22;;
38683;SDS011;24910;53.248;-6.134;2023-04-24T06:22:48;30.00;;;3.83;;
38683;SDS011;24910;53.248;-6.134;2023-04-24T06:25:17;13.60;;;3.30;;
38683;SDS011;24910;53.248;-6.134;2023-04-24T06:27:47;16.38;;;3.10;;
38683;SDS011;24910;53.248;-6.134;2023-04-24T06:30:17;16.35;;;2.80;;
38683;SDS011;24910;53.248;-6.134;2023-04-24T06:32:46;14.13;;;3.00;;
38683;SDS011;24910;53.248;-6.134;2023-04-24T06:35:15;13.10;;;2.97;;
38683;SDS011;24910;53.248;-6.134;2023-04-24T06:37:45;11.52;;;2.67;;
38683;SDS011;24910;53.248;-6.134;2023-04-24T06:40:14;14.07;;;3.10;;
38683;SDS011;24910;53.248;-6.134;2023-04-24T06:42:45;9.25;;;2.22;;
38683;SDS011;24910;53.248;-6.134;2023-04-24T06:45:14;11.65;;;2.47;;
38683;SDS011;24910;53.248;-6.134;2023-04-24T06:47:46;10.47;;;2.40;;
38683;SDS011;24910;53.248;-6.134;2023-04-24T06:50:15;13.00;;;2.75;;
38683;SDS011;24910;53.248;-6.134;2023-04-24T06:52:44;16.20;;;3.03;;
38683;SDS011;24910;53.248;-6.134;2023-04-24T06:55:14;12.77;;;2.67;;
38683;SDS011;24910;53.248;-6.134;2023-04-24T06:57:43;20.15;;;2.63;;
38683;SDS011;24910;53.248;-6.134;2023-04-24T07:00:13;14.90;;;3.20;;
38683;SDS011;24910;53.248;-6.134;2023-04-24T07:02:43;9.07;;;2.30;;
38683;SDS011;24910;53.248;-6.134;2023-04-24T07:05:13;16.98;;;3.10;;
38683;SDS011;24910;53.248;-6.134;2023-04-24T07:07:43;14.25;;;2.88;;
38683;SDS011;24910;53.248;-6.134;2023-04-24T07:10:12;9.73;;;3.05;;
38683;SDS011;24910;53.248;-6.134;2023-04-24T07:12:41;9.15;;;2.00;;
38683;SDS011;24910;53.248;-6.134;2023-04-24T07:15:10;11.90;;;2.25;;
38683;SDS011;24910;53.248;-6.134;2023-04-24T07:17:39;9.57;;;2.22;;
38683;SDS011;24910;53.248;-6.134;2023-04-24T07:20:10;9.25;;;2.80;;
38683;SDS011;24910;53.248;-6.134;2023-04-24T07:22:42;8.93;;;2.60;;
38683;SDS011;24910;53.248;-6.134;2023-04-24T07:25:11;8.80;;;2.20;;
38683;SDS011;24910;53.248;-6.134;2023-04-24T07:27:41;11.20;;;3.08;;
38683;SDS011;24910;53.248;-6.134;2023-04-24T07:30:10;7.97;;;2.20;;
38683;SDS011;24910;53.248;-6.134;2023-04-24T07:32:39;11.73;;;2.35;;
38683;SDS011;24910;53.248;-6.134;2023-04-24T07:35:09;9.00;;;2.50;;
38683;SDS011;24910;53.248;-6.134;2023-04-24T07:37:38;12.98;;;2.95;;
38683;SDS011;24910;53.248;-6.134;2023-04-24T07:40:09;12.65;;;2.53;;
38683;SDS011;24910;53.248;-6.134;2023-04-24T07:42:38;6.35;;;2.30;;
38683;SDS011;24910;53.248;-6.134;2023-04-24T07:45:08;6.80;;;2.08;;
38683;SDS011;24910;53.248;-6.134;2023-04-24T07:47:37;9.35;;;2.60;;
38683;SDS011;24910;53.248;-6.134;2023-04-24T07:50:07;11.10;;;2.58;;
38683;SDS011;24910;53.248;-6.134;2023-04-24T07:52:36;10.60;;;3.13;;
38683;SDS011;24910;53.248;-6.134;2023-04-24T07:55:05;9.65;;;3.13;;
38683;SDS011;24910;53.248;-6.134;2023-04-24T07:57:36;10.73;;;2.45;;
38683;SDS011;24910;53.248;-6.134;2023-04-24T08:00:06;9.15;;;2.42;;
38683;SDS011;24910;53.248;-6.134;2023-04-24T08:02:39;14.65;;;3.20;;
38683;SDS011;24910;53.248;-6.134;2023-04-24T08:05:08;14.38;;;3.00;;
38683;SDS011;24910;53.248;-6.134;2023-04-24T08:07:38;7.28;;;2.80;;
38683;SDS011;24910;53.248;-6.134;2023-04-24T08:10:10;16.63;;;3.67;;
38683;SDS011;24910;53.248;-6.134;2023-04-24T08:12:40;20.85;;;3.20;;
38683;SDS011;24910;53.248;-6.134;2023-04-24T08:15:10;11.70;;;2.92;;
38683;SDS011;24910;53.248;-6.134;2023-04-24T08:17:39;9.43;;;3.10;;
38683;SDS011;24910;53.248;-6.134;2023-04-24T08:20:08;13.60;;;3.35;;
38683;SDS011;24910;53.248;-6.134;2023-04-24T08:22:41;7.95;;;3.40;;
38683;SDS011;24910;53.248;-6.134;2023-04-24T08:25:10;9.63;;;3.10;;
38683;SDS011;24910;53.248;-6.134;2023-04-24T08:27:41;16.33;;;3.47;;
38683;SDS011;24910;53.248;-6.134;2023-04-24T08:30:10;15.68;;;3.35;;
38683;SDS011;24910;53.248;-6.134;2023-04-24T08:32:40;16.05;;;3.22;;
38683;SDS011;24910;53.248;-6.134;2023-04-24T08:35:09;14.45;;;3.63;;
38683;SDS011;24910;53.248;-6.134;2023-04-24T08:37:38;16.80;;;3.10;;
38683;SDS011;24910;53.248;-6.134;2023-04-24T08:40:10;11.73;;;3.17;;
38683;SDS011;24910;53.248;-6.134;2023-04-24T08:42:43;13.65;;;3.40;;
38683;SDS011;24910;53.248;-6.134;2023-04-24T08:45:12;16.35;;;3.30;;
38683;SDS011;24910;53.248;-6.134;2023-04-24T08:47:42;16.08;;;3.53;;
38683;SDS011;24910;53.248;-6.134;2023-04-24T08:50:12;11.88;;;3.75;;
38683;SDS011;24910;53.248;-6.134;2023-04-24T08:52:42;15.43;;;4.03;;
38683;SDS011;24910;53.248;-6.134;2023-04-24T08:55:11;11.73;;;3.22;;
38683;SDS011;24910;53.248;-6.134;2023-04-24T08:57:43;13.93;;;3.00;;
38683;SDS011;24910;53.248;-6.134;2023-04-24T09:00:15;15.50;;;3.33;;
38683;SDS011;24910;53.248;-6.134;2023-04-24T09:02:45;11.43;;;3.40;;
38683;SDS011;24910;53.248;-6.134;2023-04-24T09:05:17;11.00;;;3.65;;
38683;SDS011;24910;53.248;-6.134;2023-04-24T09:07:48;13.48;;;3.40;;
38683;SDS011;24910;53.248;-6.134;2023-04-24T09:10:22;11.75;;;3.30;;
38683;SDS011;24910;53.248;-6.134;2023-04-24T09:12:54;13.60;;;3.20;;
38683;SDS011;24910;53.248;-6.134;2023-04-24T09:15:25;14.75;;;3.17;;
38683;SDS011;24910;53.248;-6.134;2023-04-24T09:17:54;16.25;;;3.10;;
38683;SDS011;24910;53.248;-6.134;2023-04-24T09:20:24;17.95;;;3.25;;
38683;SDS011;24910;53.248;-6.134;2023-04-24T09:22:53;10.23;;;2.55;;
38683;SDS011;24910;53.248;-6.134;2023-04-24T09:25:25;9.40;;;2.70;;
38683;SDS011;24910;53.248;-6.134;2023-04-24T09:28:02;8.32;;;2.85;;
38683;SDS011;24910;53.248;-6.134;2023-04-24T09:30:33;8.63;;;2.50;;
38683;SDS011;24910;53.248;-6.134;2023-04-24T09:33:12;12.55;;;2.83;;
38683;SDS011;24910;53.248;-6.134;2023-04-24T09:35:42;8.57;;;2.35;;
38683;SDS011;24910;53.248;-6.134;2023-04-24T09:38:16;7.25;;;2.63;;
38683;SDS011;24910;53.248;-6.134;2023-04-24T09:40:45;10.82;;;2.45;;
38683;SDS011;24910;53.248;-6.134;2023-04-24T09:43:16;10.27;;;2.60;;
38683;SDS011;24910;53.248;-6.134;2023-04-24T09:45:45;7.30;;;2.47;;
38683;SDS011;24910;53.248;-6.134;2023-04-24T09:48:14;11.18;;;2.67;;
38683;SDS011;24910;53.248;-6.134;2023-04-24T09:50:45;10.23;;;2.28;;
38683;SDS011;24910;53.248;-6.134;2023-04-24T09:55:45;13.25;;;2.75;;
38683;SDS011;24910;53.248;-6.134;2023-04-24T09:58:17;11.75;;;3.00;;
38683;SDS011;24910;53.248;-6.134;2023-04-24T10:00:46;9.90;;;2.65;;
38683;SDS011;24910;53.248;-6.134;2023-04-24T10:03:15;14.05;;;2.60;;
38683;SDS011;24910;53.248;-6.134;2023-04-24T10:05:46;9.55;;;2.85;;
38683;SDS011;24910;53.248;-6.134;2023-04-24T10:08:16;8.55;;;2.47;;
38683;SDS011;24910;53.248;-6.134;2023-04-24T10:10:45;7.78;;;2.55;;
38683;SDS011;24910;53.248;-6.134;2023-04-24T10:13:14;6.20;;;2.55;;
38683;SDS011;24910;53.248;-6.134;2023-04-24T10:15:45;9.00;;;2.72;;
38683;SDS011;24910;53.248;-6.134;2023-04-24T10:18:16;12.13;;;2.75;;
38683;SDS011;24910;53.248;-6.134;2023-04-24T10:20:46;6.93;;;2.25;;
38683;SDS011;24910;53.248;-6.134;2023-04-24T10:23:15;11.30;;;2.85;;
38683;SDS011;24910;53.248;-6.134;2023-04-24T10:25:46;9.30;;;2.92;;
38683;SDS011;24910;53.248;-6.134;2023-04-24T10:28:18;10.97;;;2.80;;
38683;SDS011;24910;53.248;-6.134;2023-04-24T10:30:48;8.02;;;2.72;;
38683;SDS011;24910;53.248;-6.134;2023-04-24T10:33:19;7.40;;;2.90;;
38683;SDS011;24910;53.248;-6.134;2023-04-24T10:35:49;10.55;;;2.75;;
38683;SDS011;24910;53.248;-6.134;2023-04-24T10:38:21;9.82;;;2.78;;
38683;SDS011;24910;53.248;-6.134;2023-04-24T10:40:57;7.50;;;2.60;;
38683;SDS011;24910;53.248;-6.134;2023-04-24T10:43:36;8.50;;;2.35;;
38683;SDS011;24910;53.248;-6.134;2023-04-24T10:46:08;7.57;;;2.58;;
38683;SDS011;24910;53.248;-6.134;2023-04-24T10:48:41;13.60;;;3.08;;
38683;SDS011;24910;53.248;-6.134;2023-04-24T10:51:11;10.10;;;2.38;;
38683;SDS011;24910;53.248;-6.134;2023-04-24T10:53:42;13.35;;;3.10;;
38683;SDS011;24910;53.248;-6.134;2023-04-24T10:56:11;8.18;;;2.95;;
38683;SDS011;24910;53.248;-6.134;2023-04-24T10:58:45;9.88;;;2.58;;
38683;SDS011;24910;53.248;-6.134;2023-04-24T11:01:23;7.72;;;2.70;;
38683;SDS011;24910;53.248;-6.134;2023-04-24T11:03:57;12.65;;;2.95;;
38683;SDS011;24910;53.248;-6.134;2023-04-24T11:06:28;10.68;;;3.25;;
38683;SDS011;24910;53.248;-6.134;2023-04-24T11:09:01;8.35;;;2.35;;
38683;SDS011;24910;53.248;-6.134;2023-04-24T11:11:33;8.60;;;2.72;;
38683;SDS011;24910;53.248;-6.134;2023-04-24T11:14:05;10.13;;;2.95;;
38683;SDS011;24910;53.248;-6.134;2023-04-24T11:16:51;9.55;;;2.72;;
38683;SDS011;24910;53.248;-6.134;2023-04-24T11:19:22;11.77;;;2.90;;
38683;SDS011;24910;53.248;-6.134;2023-04-24T11:21:54;9.85;;;2.78;;
38683;SDS011;24910;53.248;-6.134;2023-04-24T11:24:28;12.38;;;2.30;;
38683;SDS011;24910;53.248;-6.134;2023-04-24T11:27:00;12.75;;;2.65;;
38683;SDS011;24910;53.248;-6.134;2023-04-24T11:29:40;13.48;;;3.38;;
38683;SDS011;24910;53.248;-6.134;2023-04-24T11:32:18;11.95;;;2.92;;
38683;SDS011;24910;53.248;-6.134;2023-04-24T11:34:55;10.68;;;2.75;;
38683;SDS011;24910;53.248;-6.134;2023-04-24T11:37:26;13.30;;;3.25;;
38683;SDS011;24910;53.248;-6.134;2023-04-24T11:39:56;7.72;;;2.67;;
38683;SDS011;24910;53.248;-6.134;2023-04-24T11:42:28;17.05;;;3.08;;
38683;SDS011;24910;53.248;-6.134;2023-04-24T11:45:06;9.05;;;2.90;;
38683;SDS011;24910;53.248;-6.134;2023-04-24T11:47:36;9.27;;;2.95;;
38683;SDS011;24910;53.248;-6.134;2023-04-24T11:50:07;9.35;;;2.67;;
38683;SDS011;24910;53.248;-6.134;2023-04-24T11:52:38;13.05;;;3.50;;
38683;SDS011;24910;53.248;-6.134;2023-04-24T11:55:12;8.77;;;2.97;;
38683;SDS011;24910;53.248;-6.134;2023-04-24T11:57:53;10.65;;;3.08;;
38683;SDS011;24910;53.248;-6.134;2023-04-24T12:00:26;10.50;;;2.80;;
38683;SDS011;24910;53.248;-6.134;2023-04-24T12:03:04;12.05;;;2.85;;
38683;SDS011;24910;53.248;-6.134;2023-04-24T12:05:34;16.15;;;2.75;;
38683;SDS011;24910;53.248;-6.134;2023-04-24T12:08:04;14.02;;;2.95;;
38683;SDS011;24910;53.248;-6.134;2023-04-24T12:10:35;16.15;;;3.30;;
38683;SDS011;24910;53.248;-6.134;2023-04-24T12:13:04;14.15;;;2.95;;
38683;SDS011;24910;53.248;-6.134;2023-04-24T12:15:35;13.02;;;2.78;;
38683;SDS011;24910;53.248;-6.134;2023-04-24T12:18:08;13.93;;;2.80;;
38683;SDS011;24910;53.248;-6.134;2023-04-24T12:20:40;10.90;;;3.20;;
38683;SDS011;24910;53.248;-6.134;2023-04-24T12:23:09;11.65;;;3.03;;
38683;SDS011;24910;53.248;-6.134;2023-04-24T12:25:38;10.27;;;2.67;;
38683;SDS011;24910;53.248;-6.134;2023-04-24T12:28:09;16.13;;;3.33;;
38683;SDS011;24910;53.248;-6.134;2023-04-24T12:30:41;11.20;;;2.47;;
38683;SDS011;24910;53.248;-6.134;2023-04-24T12:33:12;9.30;;;2.75;;
38683;SDS011;24910;53.248;-6.134;2023-04-24T12:35:45;11.05;;;3.15;;
38683;SDS011;24910;53.248;-6.134;2023-04-24T12:38:15;10.43;;;2.85;;
38683;SDS011;24910;53.248;-6.134;2023-04-24T12:40:45;15.27;;;3.80;;
38683;SDS011;24910;53.248;-6.134;2023-04-24T12:43:14;12.95;;;2.72;;
38683;SDS011;24910;53.248;-6.134;2023-04-24T12:45:45;10.65;;;2.70;;
38683;SDS011;24910;53.248;-6.134;2023-04-24T12:48:16;11.70;;;2.95;;
38683;SDS011;24910;53.248;-6.134;2023-04-24T12:50:45;6.93;;;2.50;;
38683;SDS011;24910;53.248;-6.134;2023-04-24T12:53:14;7.97;;;2.30;;
38683;SDS011;24910;53.248;-6.134;2023-04-24T12:55:43;11.20;;;2.65;;
38683;SDS011;24910;53.248;-6.134;2023-04-24T12:58:14;8.48;;;2.47;;
38683;SDS011;24910;53.248;-6.134;2023-04-24T13:00:43;9.02;;;2.42;;
38683;SDS011;24910;53.248;-6.134;2023-04-24T13:03:14;11.13;;;2.88;;
38683;SDS011;24910;53.248;-6.134;2023-04-24T13:05:44;9.27;;;2.42;;
38683;SDS011;24910;53.248;-6.134;2023-04-24T13:08:13;11.27;;;2.47;;
38683;SDS011;24910;53.248;-6.134;2023-04-24T13:10:42;13.55;;;3.10;;
38683;SDS011;24910;53.248;-6.134;2023-04-24T13:13:11;10.93;;;2.70;;
38683;SDS011;24910;53.248;-6.134;2023-04-24T13:15:40;10.32;;;3.05;;
38683;SDS011;24910;53.248;-6.134;2023-04-24T13:18:10;9.05;;;2.60;;
38683;SDS011;24910;53.248;-6.134;2023-04-24T13:20:39;8.13;;;2.60;;
38683;SDS011;24910;53.248;-6.134;2023-04-24T13:23:09;6.88;;;2.17;;
38683;SDS011;24910;53.248;-6.134;2023-04-24T13:25:38;8.98;;;2.55;;
38683;SDS011;24910;53.248;-6.134;2023-04-24T13:28:07;10.90;;;2.40;;
38683;SDS011;24910;53.248;-6.134;2023-04-24T13:30:39;11.90;;;2.72;;
38683;SDS011;24910;53.248;-6.134;2023-04-24T13:33:08;7.85;;;2.33;;
38683;SDS011;24910;53.248;-6.134;2023-04-24T13:35:38;7.78;;;2.78;;
38683;SDS011;24910;53.248;-6.134;2023-04-24T13:38:08;15.03;;;2.97;;
38683;SDS011;24910;53.248;-6.134;2023-04-24T13:40:37;12.43;;;3.40;;
38683;SDS011;24910;53.248;-6.134;2023-04-24T13:43:06;14.25;;;2.85;;
38683;SDS011;24910;53.248;-6.134;2023-04-24T13:45:35;7.32;;;2.55;;
38683;SDS011;24910;53.248;-6.134;2023-04-24T13:48:04;12.10;;;3.22;;
38683;SDS011;24910;53.248;-6.134;2023-04-24T13:50:36;11.10;;;2.72;;
38683;SDS011;24910;53.248;-6.134;2023-04-24T13:53:06;13.57;;;2.60;;
38683;SDS011;24910;53.248;-6.134;2023-04-24T13:55:35;11.37;;;2.70;;
38683;SDS011;24910;53.248;-6.134;2023-04-24T13:58:06;9.00;;;2.80;;
38683;SDS011;24910;53.248;-6.134;2023-04-24T14:00:35;7.13;;;2.15;;
38683;SDS011;24910;53.248;-6.134;2023-04-24T14:03:04;8.65;;;2.28;;
38683;SDS011;24910;53.248;-6.134;2023-04-24T14:05:34;8.13;;;2.55;;
38683;SDS011;24910;53.248;-6.134;2023-04-24T14:08:05;5.70;;;2.28;;
38683;SDS011;24910;53.248;-6.134;2023-04-24T14:10:35;10.57;;;2.47;;
38683;SDS011;24910;53.248;-6.134;2023-04-24T14:13:04;9.73;;;3.13;;
38683;SDS011;24910;53.248;-6.134;2023-04-24T14:15:35;11.43;;;2.58;;
38683;SDS011;24910;53.248;-6.134;2023-04-24T14:18:04;7.90;;;2.83;;
38683;SDS011;24910;53.248;-6.134;2023-04-24T14:20:33;13.45;;;3.20;;
38683;SDS011;24910;53.248;-6.134;2023-04-24T14:23:03;12.80;;;3.03;;
38683;SDS011;24910;53.248;-6.134;2023-04-24T14:25:33;14.20;;;3.20;;
38683;SDS011;24910;53.248;-6.134;2023-04-24T14:28:02;8.67;;;2.70;;
38683;SDS011;24910;53.248;-6.134;2023-04-24T14:30:31;9.85;;;2.70;;
38683;SDS011;24910;53.248;-6.134;2023-04-24T14:33:00;11.18;;;2.88;;
38683;SDS011;24910;53.248;-6.134;2023-04-24T14:35:30;7.32;;;2.30;;
38683;SDS011;24910;53.248;-6.134;2023-04-24T14:38:01;11.02;;;2.10;;
38683;SDS011;24910;53.248;-6.134;2023-04-24T14:40:30;11.15;;;2.53;;
38683;SDS011;24910;53.248;-6.134;2023-04-24T14:43:03;12.57;;;2.92;;
38683;SDS011;24910;53.248;-6.134;2023-04-24T14:45:33;6.20;;;2.30;;
38683;SDS011;24910;53.248;-6.134;2023-04-24T14:48:02;13.38;;;2.47;;
38683;SDS011;24910;53.248;-6.134;2023-04-24T14:50:32;10.43;;;2.50;;